createdAt,value
2016-10-03T07:33:09.631Z,99.99
2016-10-03T07:38:09.556Z,99.99
2016-10-03T07:43:09.469Z,99.99
2016-10-03T07:48:09.390Z,99.99
2016-10-03T07:53:09.317Z,99.99
2016-10-03T07:58:09.244Z,99.99
2016-10-03T08:03:09.185Z,96.66
2016-10-03T08:08:09.109Z,94.35
2016-10-03T08:13:08.739Z,84.41
2016-10-03T08:18:08.989Z,89.67
2016-10-03T08:23:08.922Z,87.62
2016-10-03T08:28:08.866Z,84.95
2016-10-03T08:33:08.810Z,83.59
2016-10-03T08:38:08.752Z,82.81
2016-10-03T08:44:51.617Z,82.23
2016-10-03T08:49:51.868Z,81.98
2016-10-03T08:54:51.822Z,82.42
2016-10-03T08:59:51.769Z,83.29
2016-10-03T09:04:51.730Z,82.67
2016-10-03T09:09:51.380Z,82.32
2016-10-03T09:14:51.645Z,81.93
2016-10-03T09:19:51.597Z,81.65
2016-10-03T09:24:51.249Z,80.78
2016-10-03T09:29:51.521Z,80.97
2016-10-03T09:34:51.473Z,80.78
2016-10-03T09:39:51.423Z,80.91
2016-10-03T09:44:51.382Z,79.95
2016-10-03T09:49:51.340Z,79.27
2016-10-03T09:54:51.295Z,77.15
2016-10-03T09:59:51.251Z,74.85
2016-10-03T10:04:51.211Z,78.94
2016-10-03T10:09:51.163Z,79.75
2016-10-03T10:14:50.815Z,80.14
2016-10-03T10:19:50.775Z,80.39
2016-10-03T10:24:51.028Z,80.35
2016-10-03T10:29:50.984Z,80.74
2016-10-03T10:34:50.939Z,80.87
2016-10-03T10:39:50.593Z,81.65
2016-10-03T10:44:50.853Z,82.14
2016-10-03T10:49:50.808Z,83.11
2016-10-03T10:54:50.457Z,81.76
2016-10-03T10:59:50.720Z,82.48
2016-10-03T11:04:50.370Z,83.92
2016-10-03T11:09:50.630Z,84.07
2016-10-03T11:14:50.282Z,84.36
2016-10-03T11:19:50.542Z,84.36
2016-10-03T11:24:50.509Z,84.27
2016-10-03T11:29:50.444Z,83.59
2016-10-03T11:34:50.077Z,84.31
2016-10-03T11:39:50.329Z,84.36
2016-10-03T11:44:50.270Z,83.83
2016-10-03T11:49:50.269Z,84.79
2016-10-03T11:54:50.252Z,85.81
2016-10-03T11:59:49.948Z,85.28
2016-10-03T12:04:50.246Z,84.32
2016-10-03T12:09:49.941Z,84.55
2016-10-03T12:14:49.934Z,85.47
2016-10-03T12:19:49.933Z,85.28
2016-10-03T12:24:50.229Z,85.57
2016-10-03T12:29:50.220Z,86.05
2016-10-03T12:34:50.209Z,86.11
2016-10-03T12:39:50.205Z,85.72
2016-10-03T12:44:50.190Z,85.82
2016-10-03T12:49:50.192Z,85.91
2016-10-03T12:54:50.182Z,84.66
2016-10-03T12:59:50.176Z,83.88
2016-10-03T13:04:50.171Z,84.07
2016-10-03T13:09:49.868Z,84.36
2016-10-03T13:14:50.166Z,84.46
2016-10-03T13:19:49.860Z,84.65
2016-10-03T13:24:50.162Z,85.28
2016-10-03T13:29:50.160Z,85.38
2016-10-03T13:34:50.157Z,85.05
2016-10-03T13:39:49.849Z,84.8
2016-10-03T13:44:49.858Z,84.61
2016-10-03T13:49:50.148Z,84.7
2016-10-03T13:54:49.838Z,84.8
2016-10-03T13:59:49.829Z,84.9
2016-10-03T14:04:49.828Z,84.7
2016-10-03T14:09:49.827Z,85.28
2016-10-03T14:14:49.817Z,85.86
2016-10-03T14:19:49.809Z,86.01
2016-10-03T14:24:50.114Z,86.21
2016-10-03T14:29:50.113Z,86.01
2016-10-03T14:34:50.103Z,86.01
2016-10-03T14:39:50.103Z,86.11
2016-10-03T14:44:50.095Z,87.41
2016-10-03T14:49:49.781Z,87.32
2016-10-03T14:54:50.081Z,88.04
2016-10-03T14:59:49.768Z,88.43
2016-10-03T15:04:50.097Z,89.2
2016-10-03T15:09:50.058Z,89.83
2016-10-03T15:14:50.057Z,89.92
2016-10-03T15:19:49.745Z,90.59
2016-10-03T15:24:50.039Z,90.94
2016-10-03T15:29:50.042Z,90.55
2016-10-03T15:34:49.732Z,89.98
2016-10-03T15:39:50.038Z,89.73
2016-10-03T15:44:49.723Z,91.08
2016-10-03T15:49:49.716Z,92.23
2016-10-03T15:54:50.018Z,92.47
2016-10-03T15:59:50.014Z,93.34
2016-10-03T16:04:49.703Z,93.82
2016-10-03T16:09:49.991Z,93.63
2016-10-03T16:14:49.984Z,94.26
2016-10-03T16:19:49.974Z,94.45
2016-10-03T16:24:49.969Z,95.31
2016-10-03T16:29:49.955Z,95.7
2016-10-03T16:34:49.641Z,95.65
2016-10-03T16:39:49.928Z,95.75
2016-10-03T16:44:49.921Z,96.8
2016-10-03T16:49:49.908Z,96.51
2016-10-03T16:54:49.902Z,96.7
2016-10-03T16:59:49.903Z,96.99
2016-10-03T17:04:49.877Z,97.09
2016-10-03T17:09:49.864Z,96.8
2016-10-03T17:14:49.854Z,97.14
2016-10-03T17:19:49.544Z,97.42
2016-10-03T17:24:49.835Z,97.42
2016-10-03T17:29:49.822Z,97.81
2016-10-03T17:34:49.810Z,98.48
2016-10-03T17:39:49.787Z,98.24
2016-10-03T17:44:49.769Z,98.24
2016-10-03T17:49:49.766Z,99.39
2016-10-03T17:54:49.732Z,99.96
2016-10-03T17:59:49.416Z,99.99
2016-10-03T18:04:49.726Z,99.99
2016-10-03T18:09:49.704Z,99.68
2016-10-03T18:14:49.684Z,99.99
2016-10-03T18:19:49.686Z,99.99
2016-10-03T18:24:49.678Z,99.99
2016-10-03T18:29:49.678Z,99.99
2016-10-03T18:34:49.637Z,99.99
2016-10-03T18:39:49.316Z,99.99
2016-10-03T18:44:49.714Z,99.99
2016-10-03T18:49:50.590Z,99.87
2016-10-03T18:54:49.588Z,99.49
2016-10-03T18:59:49.611Z,99.29
2016-10-03T19:04:49.262Z,99.39
2016-10-03T19:09:49.559Z,99.39
2016-10-03T19:14:49.245Z,98.91
2016-10-03T19:19:49.287Z,99.49
2016-10-03T19:24:49.514Z,99.68
2016-10-03T19:29:49.517Z,99.87
2016-10-03T19:34:49.486Z,99.99
2016-10-03T19:39:49.158Z,99.99
2016-10-03T19:44:49.452Z,99.99
2016-10-03T19:49:49.436Z,99.99
2016-10-03T19:54:49.419Z,99.99
2016-10-03T19:59:49.401Z,99.99
2016-10-03T20:04:49.379Z,99.99
